Time;durP1;ratioP1;P1;durP2;ratioP2;P2;SDS_P1;SDS_P2;PMS_P1;PMS_P2;Temp;Humidity;BMP_temperature;BMP_pressure;BME280_temperature;BME280_humidity;BME280_pressure;Samples;Min_cycle;Max_cycle;Signal;HPM_P1;HPM_P2
2022/01/05 00:00:28;;;;;;;9.55;3.25;;;1.80;99.90;;;;;;4999540;28;20033;-89
2022/01/05 00:02:53;;;;;;;8.18;2.83;;;1.10;99.90;;;;;;4983120;28;20720;-90
2022/01/05 00:05:19;;;;;;;11.27;2.83;;;1.10;99.90;;;;;;4995564;28;20048;-90
2022/01/05 00:07:45;;;;;;;11.15;3.17;;;1.10;99.90;;;;;;5009101;28;20063;-89
2022/01/05 00:10:11;;;;;;;8.65;2.90;;;1.20;99.90;;;;;;4982955;28;20041;-90
2022/01/05 00:12:37;;;;;;;9.35;3.58;;;1.10;99.90;;;;;;5031366;28;20383;-90
2022/01/05 00:15:03;;;;;;;12.52;2.53;;;1.10;99.90;;;;;;4997607;28;20029;-90
2022/01/05 00:17:29;;;;;;;11.20;2.75;;;1.10;99.90;;;;;;5013245;28;20059;-89
2022/01/05 00:19:56;;;;;;;12.68;3.10;;;1.00;99.90;;;;;;5003060;28;20412;-91
2022/01/05 00:22:22;;;;;;;11.65;2.50;;;1.00;99.90;;;;;;5015598;28;20481;-89
2022/01/05 00:24:48;;;;;;;11.65;2.97;;;1.00;99.90;;;;;;5014885;28;20037;-90
2022/01/05 00:27:13;;;;;;;8.70;2.75;;;1.00;99.90;;;;;;4997480;28;20052;-90
2022/01/05 00:29:39;;;;;;;10.50;2.70;;;2.10;99.90;;;;;;4998615;28;20124;-90
2022/01/05 00:32:05;;;;;;;15.70;3.55;;;1.00;99.90;;;;;;4997895;28;20039;-90
2022/01/05 00:34:31;;;;;;;10.85;3.17;;;0.90;99.90;;;;;;5013997;28;20115;-89
2022/01/05 00:36:57;;;;;;;9.30;2.63;;;2.00;99.90;;;;;;4999083;28;21206;-89
2022/01/05 00:39:22;;;;;;;7.05;2.85;;;1.00;99.90;;;;;;4981930;28;20041;-91
2022/01/05 00:41:48;;;;;;;11.43;3.05;;;1.00;99.90;;;;;;4998685;28;20178;-90
2022/01/05 00:44:14;;;;;;;10.65;2.83;;;1.00;99.90;;;;;;5002133;28;20033;-90
2022/01/05 00:46:39;;;;;;;17.67;3.28;;;1.00;99.90;;;;;;4992739;28;20133;-90
2022/01/05 00:49:05;;;;;;;9.05;3.00;;;1.00;99.90;;;;;;4988116;28;20037;-90
2022/01/05 00:51:31;;;;;;;7.20;2.22;;;1.10;99.90;;;;;;5013144;28;20044;-90
2022/01/05 00:53:57;;;;;;;11.23;2.40;;;1.10;99.90;;;;;;4997191;28;20050;-90
2022/01/05 00:56:22;;;;;;;10.35;3.08;;;1.10;99.90;;;;;;5012614;28;20043;-90
2022/01/05 00:58:48;;;;;;;13.20;3.72;;;1.10;99.90;;;;;;4997959;28;20120;-91
2022/01/05 01:01:14;;;;;;;12.10;2.72;;;1.80;99.90;;;;;;5012344;28;20029;-89
2022/01/05 01:03:39;;;;;;;10.75;2.38;;;1.00;99.90;;;;;;5012397;28;20035;-90
2022/01/05 01:06:06;;;;;;;9.98;2.50;;;1.00;99.90;;;;;;4996233;28;20538;-90
2022/01/05 01:08:32;;;;;;;9.20;2.10;;;1.00;99.90;;;;;;5013186;28;20147;-90
2022/01/05 01:10:58;;;;;;;7.78;2.50;;;1.90;99.90;;;;;;5029477;28;20474;-90
2022/01/05 01:13:24;;;;;;;10.82;2.92;;;1.70;99.90;;;;;;5029497;28;20033;-90
2022/01/05 01:15:51;;;;;;;9.45;3.13;;;0.90;99.90;;;;;;5013103;28;20064;-89
2022/01/05 01:18:19;;;;;;;10.75;2.45;;;0.90;99.90;;;;;;5030517;28;20120;-88
2022/01/05 01:20:47;;;;;;;13.77;2.70;;;1.70;99.90;;;;;;5010443;28;20124;-89
2022/01/05 01:23:13;;;;;;;9.48;3.17;;;0.90;99.90;;;;;;4998517;28;20051;-89
2022/01/05 01:25:39;;;;;;;16.80;3.10;;;0.90;99.90;;;;;;5015701;28;20053;-89
2022/01/05 01:28:06;;;;;;;6.55;2.30;;;0.90;99.90;;;;;;4997496;28;20048;-90
2022/01/05 01:30:32;;;;;;;17.98;2.85;;;0.90;99.90;;;;;;5017423;28;20069;-89
2022/01/05 01:33:01;;;;;;;12.48;2.22;;;0.90;99.90;;;;;;5000035;28;20041;-89
2022/01/05 01:35:27;;;;;;;7.78;1.70;;;0.90;99.90;;;;;;5005058;28;20033;-88
2022/01/05 01:37:54;;;;;;;8.18;2.22;;;0.90;99.90;;;;;;4994888;28;20101;-90
2022/01/05 01:40:20;;;;;;;13.43;2.90;;;2.10;99.90;;;;;;5018725;28;20116;-90
2022/01/05 01:42:46;;;;;;;8.13;2.28;;;0.90;99.90;;;;;;5014828;28;20033;-91
2022/01/05 01:45:12;;;;;;;12.98;2.38;;;1.90;99.90;;;;;;5018066;28;20089;-90
2022/01/05 01:47:38;;;;;;;8.65;2.13;;;2.20;99.90;;;;;;4983442;28;20037;-90
2022/01/05 01:50:04;;;;;;;10.68;2.33;;;2.30;99.90;;;;;;5016042;28;20037;-89
2022/01/05 01:52:30;;;;;;;8.40;2.10;;;1.00;99.90;;;;;;5001884;28;20551;-90
2022/01/05 01:54:56;;;;;;;10.73;2.22;;;1.10;99.90;;;;;;4999193;28;20120;-90
2022/01/05 01:57:22;;;;;;;7.32;2.53;;;1.10;99.90;;;;;;5018540;28;20039;-90
2022/01/05 01:59:48;;;;;;;13.52;2.63;;;2.20;99.90;;;;;;5017889;28;20037;-91
2022/01/05 02:02:17;;;;;;;11.60;2.50;;;2.30;99.90;;;;;;5037138;28;20110;-93
2022/01/05 02:04:44;;;;;;;9.10;2.08;;;1.00;99.90;;;;;;5020196;28;20037;-92
2022/01/05 02:07:10;;;;;;;6.95;2.17;;;1.00;99.90;;;;;;5005126;28;20043;-92
2022/01/05 02:09:37;;;;;;;9.38;2.10;;;1.00;99.90;;;;;;5017746;28;20098;-92
2022/01/05 02:12:07;;;;;;;9.50;2.17;;;1.90;99.90;;;;;;5021266;28;20040;-92
2022/01/05 02:14:33;;;;;;;10.40;2.30;;;1.00;99.90;;;;;;5004123;28;20041;-92
2022/01/05 02:17:03;;;;;;;11.32;3.25;;;1.00;99.90;;;;;;5017801;28;20041;-93
2022/01/05 02:19:29;;;;;;;9.30;2.30;;;1.50;99.90;;;;;;5018527;28;20451;-92
2022/01/05 02:21:55;;;;;;;7.43;2.40;;;1.00;99.90;;;;;;5012962;28;20129;-92
2022/01/05 02:24:20;;;;;;;16.75;3.15;;;1.00;99.90;;;;;;5004214;28;20076;-93
2022/01/05 02:26:46;;;;;;;8.30;2.30;;;2.00;99.90;;;;;;5036715;28;20033;-92
2022/01/05 02:29:12;;;;;;;10.05;2.67;;;1.70;99.90;;;;;;5001422;28;20047;-92
2022/01/05 02:31:38;;;;;;;19.40;3.17;;;0.30;99.90;;;;;;4985324;28;20121;-92
2022/01/05 02:34:04;;;;;;;8.27;2.42;;;2.00;99.90;;;;;;5001126;28;20270;-94
2022/01/05 02:36:30;;;;;;;15.43;3.67;;;1.10;99.90;;;;;;5019851;28;20037;-93
2022/01/05 02:38:56;;;;;;;12.02;2.63;;;1.10;99.90;;;;;;5002840;28;20101;-92
2022/01/05 02:41:22;;;;;;;7.53;2.60;;;2.30;99.90;;;;;;5003563;28;20056;-91
2022/01/05 02:43:48;;;;;;;9.63;2.30;;;1.10;99.90;;;;;;5016465;28;20036;-93
2022/01/05 02:46:16;;;;;;;12.95;2.60;;;1.10;99.90;;;;;;5018637;28;20143;-93
2022/01/05 02:48:43;;;;;;;12.23;2.83;;;2.10;99.90;;;;;;5010568;28;20530;-93
2022/01/05 02:51:11;;;;;;;9.70;2.95;;;2.10;99.90;;;;;;5015030;28;20049;-93
2022/01/05 02:53:37;;;;;;;9.30;2.40;;;1.10;99.90;;;;;;5017950;28;20117;-93
2022/01/05 02:56:04;;;;;;;9.00;2.63;;;1.10;99.90;;;;;;5001988;28;20044;-92
2022/01/05 02:58:30;;;;;;;11.13;2.58;;;1.10;99.90;;;;;;5017794;28;20029;-92
2022/01/05 03:00:56;;;;;;;9.32;2.70;;;1.10;99.90;;;;;;5035480;28;20041;-92
2022/01/05 03:03:21;;;;;;;9.98;2.92;;;1.00;99.90;;;;;;5036149;28;20493;-93
2022/01/05 03:05:47;;;;;;;9.32;2.45;;;2.30;99.90;;;;;;4995478;28;20041;-92
2022/01/05 03:08:13;;;;;;;11.38;3.15;;;1.10;99.90;;;;;;4986527;28;20044;-91
2022/01/05 03:10:38;;;;;;;13.48;3.20;;;1.10;99.90;;;;;;4997458;28;20656;-91
2022/01/05 03:13:04;;;;;;;8.75;2.63;;;1.00;99.90;;;;;;5001077;28;20037;-91
2022/01/05 03:15:30;;;;;;;10.27;2.67;;;2.30;99.90;;;;;;5035292;28;20037;-92
2022/01/05 03:17:56;;;;;;;11.25;2.15;;;1.20;99.90;;;;;;5019218;28;20037;-91
2022/01/05 03:20:22;;;;;;;9.98;2.45;;;2.20;99.90;;;;;;5018727;28;20136;-92
2022/01/05 03:22:48;;;;;;;15.27;2.75;;;2.00;99.90;;;;;;5002806;28;20049;-93
2022/01/05 03:25:18;;;;;;;10.68;2.63;;;1.00;99.90;;;;;;5015762;28;20500;-92
2022/01/05 03:27:46;;;;;;;13.57;2.58;;;1.10;99.90;;;;;;4987256;28;20106;-92
2022/01/05 03:30:18;;;;;;;14.10;2.95;;;1.10;99.90;;;;;;5018859;28;20052;-91
2022/01/05 03:35:30;;;;;;;13.55;3.00;;;1.00;99.90;;;;;;5034451;28;20375;-92
2022/01/05 03:37:57;;;;;;;12.90;2.58;;;1.10;99.90;;;;;;5011337;28;20061;-92
2022/01/05 03:40:23;;;;;;;16.33;2.90;;;1.00;99.90;;;;;;5001688;28;20036;-91
2022/01/05 03:42:48;;;;;;;9.18;2.72;;;1.00;99.90;;;;;;5016860;28;20398;-92
2022/01/05 03:45:14;;;;;;;13.98;2.67;;;1.10;99.90;;;;;;4997860;28;20037;-89
2022/01/05 03:47:40;;;;;;;10.50;2.53;;;1.40;99.90;;;;;;5011218;28;20071;-90
2022/01/05 03:50:07;;;;;;;15.57;2.58;;;1.10;99.90;;;;;;5009348;28;20473;-89
2022/01/05 03:52:33;;;;;;;9.88;2.30;;;1.10;99.90;;;;;;5014991;28;20028;-89
2022/01/05 03:54:59;;;;;;;12.77;2.10;;;1.10;99.90;;;;;;5014358;28;20049;-91
2022/01/05 03:57:25;;;;;;;9.23;2.08;;;2.00;99.90;;;;;;5015064;28;20037;-89
2022/01/05 03:59:52;;;;;;;12.90;2.88;;;2.20;99.90;;;;;;5012986;28;20044;-88
2022/01/05 04:02:18;;;;;;;12.80;2.47;;;1.10;99.90;;;;;;5014138;28;20037;-88
2022/01/05 04:04:45;;;;;;;25.88;3.35;;;1.10;99.90;;;;;;5025723;28;20036;-88
2022/01/05 04:07:11;;;;;;;14.02;2.97;;;1.10;99.90;;;;;;4988410;28;20072;-90
2022/01/05 04:09:37;;;;;;;11.02;2.45;;;2.10;99.90;;;;;;5017477;28;20041;-89
2022/01/05 04:12:03;;;;;;;13.82;2.60;;;1.00;99.90;;;;;;5019163;28;20025;-89
2022/01/05 04:14:29;;;;;;;13.30;2.55;;;1.00;99.90;;;;;;5006090;28;20057;-89
2022/01/05 04:16:54;;;;;;;9.40;2.65;;;1.00;99.90;;;;;;5037021;28;20029;-88
2022/01/05 04:19:20;;;;;;;9.05;2.55;;;1.00;99.90;;;;;;5036011;28;20045;-89
2022/01/05 04:21:46;;;;;;;11.63;3.35;;;2.20;99.90;;;;;;5020117;28;20052;-88
2022/01/05 04:24:12;;;;;;;9.85;2.95;;;0.90;99.90;;;;;;5015540;28;20056;-89
2022/01/05 04:26:37;;;;;;;11.48;2.47;;;2.10;99.90;;;;;;5012546;28;20041;-89
2022/01/05 04:29:03;;;;;;;13.77;3.47;;;1.60;99.90;;;;;;4980558;28;20171;-89
2022/01/05 04:31:29;;;;;;;13.60;2.92;;;1.30;99.90;;;;;;5003722;28;20125;-89
2022/01/05 04:33:54;;;;;;;10.40;3.22;;;0.90;99.90;;;;;;5031217;28;20174;-89
2022/01/05 04:36:20;;;;;;;17.08;2.97;;;1.30;99.90;;;;;;4998992;28;20100;-88
2022/01/05 04:38:46;;;;;;;13.90;3.08;;;-0.20;99.90;;;;;;5012195;28;20079;-88
2022/01/05 04:41:11;;;;;;;20.67;3.85;;;0.90;99.90;;;;;;5012837;28;20682;-89
2022/01/05 04:43:37;;;;;;;11.88;2.92;;;0.90;99.90;;;;;;5015228;28;20102;-88
2022/01/05 04:46:03;;;;;;;12.88;2.65;;;2.00;99.90;;;;;;4983167;28;20402;-88
2022/01/05 04:48:29;;;;;;;15.88;2.75;;;1.00;99.90;;;;;;5005073;28;20098;-88
2022/01/05 04:50:55;;;;;;;12.18;3.30;;;1.10;99.90;;;;;;4978723;28;20067;-89
2022/01/05 04:53:21;;;;;;;12.80;2.45;;;2.30;99.90;;;;;;4999663;28;20425;-88
2022/01/05 04:55:46;;;;;;;5.97;2.10;;;1.10;99.90;;;;;;4998952;28;20051;-88
2022/01/05 04:58:12;;;;;;;15.82;3.15;;;1.20;99.90;;;;;;4997082;28;20121;-89
2022/01/05 05:00:38;;;;;;;7.10;3.03;;;1.30;99.90;;;;;;4992151;28;20041;-90
2022/01/05 05:03:04;;;;;;;13.00;2.53;;;2.30;99.90;;;;;;5015228;28;20110;-88
2022/01/05 05:05:30;;;;;;;12.30;2.70;;;1.10;99.90;;;;;;4994933;28;20296;-88
2022/01/05 05:07:57;;;;;;;12.48;2.25;;;1.80;99.90;;;;;;5015263;28;20126;-88
2022/01/05 05:10:24;;;;;;;12.38;2.85;;;1.10;99.90;;;;;;5014595;28;20045;-89
2022/01/05 05:12:49;;;;;;;14.13;2.95;;;1.00;99.90;;;;;;4998975;28;20052;-89
2022/01/05 05:15:15;;;;;;;10.73;3.42;;;1.90;99.90;;;;;;4993597;28;20029;-88
2022/01/05 05:17:41;;;;;;;13.40;3.38;;;1.10;99.90;;;;;;4999073;28;20037;-89
2022/01/05 05:20:07;;;;;;;12.73;3.17;;;1.00;99.90;;;;;;4982230;28;20118;-89
2022/01/05 05:22:35;;;;;;;14.73;2.95;;;1.10;99.90;;;;;;4995412;28;20374;-89
2022/01/05 05:25:01;;;;;;;12.82;3.55;;;1.10;99.90;;;;;;5014510;28;20091;-91
2022/01/05 05:27:27;;;;;;;13.15;2.97;;;1.10;99.90;;;;;;4976772;28;20037;-91
2022/01/05 05:29:53;;;;;;;13.27;3.15;;;1.90;99.90;;;;;;5015135;28;20025;-91
2022/01/05 05:32:19;;;;;;;10.20;2.85;;;1.20;99.90;;;;;;4982195;28;20041;-91
2022/01/05 05:34:45;;;;;;;11.18;2.80;;;1.30;99.90;;;;;;5013250;28;20060;-91
2022/01/05 05:37:10;;;;;;;11.57;2.95;;;1.30;99.90;;;;;;4993333;28;20037;-91
2022/01/05 05:39:36;;;;;;;15.65;3.50;;;1.40;99.90;;;;;;5013474;28;20112;-91
2022/01/05 05:42:02;;;;;;;17.08;3.67;;;2.40;99.90;;;;;;4979483;28;20117;-91
2022/01/05 05:44:28;;;;;;;15.32;2.95;;;1.40;99.90;;;;;;4978989;28;20455;-91
2022/01/05 05:46:54;;;;;;;12.68;2.97;;;2.60;99.90;;;;;;4992052;28;20094;-91
2022/01/05 05:49:19;;;;;;;13.77;3.10;;;1.60;99.90;;;;;;4998407;28;20520;-91
2022/01/05 05:51:45;;;;;;;12.07;2.80;;;1.60;99.90;;;;;;4980503;28;20107;-91
2022/01/05 05:54:11;;;;;;;15.05;3.92;;;1.60;99.90;;;;;;4981321;28;20037;-92
2022/01/05 05:56:36;;;;;;;14.40;3.30;;;1.60;99.90;;;;;;5014410;28;20040;-89
2022/01/05 05:59:02;;;;;;;14.02;3.10;;;1.70;99.90;;;;;;5013784;28;20029;-90
2022/01/05 06:01:29;;;;;;;23.23;3.97;;;1.70;99.90;;;;;;5014695;28;20041;-89
2022/01/05 06:03:55;;;;;;;11.88;2.85;;;2.50;99.90;;;;;;5004136;28;20125;-90
2022/01/05 06:06:20;;;;;;;15.45;3.42;;;1.70;99.90;;;;;;5010209;28;20038;-90
2022/01/05 06:08:46;;;;;;;14.07;2.80;;;1.80;99.90;;;;;;5013075;28;20038;-89
2022/01/05 06:11:12;;;;;;;18.23;3.38;;;1.90;99.90;;;;;;4996512;28;20124;-90
2022/01/05 06:13:37;;;;;;;14.27;2.67;;;2.50;99.90;;;;;;5016288;28;20067;-91
2022/01/05 06:16:03;;;;;;;13.20;2.95;;;3.10;99.90;;;;;;5016058;28;20045;-89
2022/01/05 06:18:29;;;;;;;11.75;3.58;;;2.00;99.90;;;;;;4995322;28;20387;-89
2022/01/05 06:20:55;;;;;;;13.80;3.83;;;1.90;99.90;;;;;;4996898;28;20116;-89
2022/01/05 06:23:21;;;;;;;16.88;4.13;;;2.00;99.90;;;;;;5034072;28;20135;-91
2022/01/05 06:25:46;;;;;;;10.90;2.58;;;2.00;99.90;;;;;;5030278;28;20429;-91
2022/01/05 06:28:12;;;;;;;16.52;3.72;;;2.00;99.90;;;;;;5019002;28;20072;-91
2022/01/05 06:30:39;;;;;;;15.88;3.70;;;2.10;99.90;;;;;;5011755;28;20374;-91
2022/01/05 06:33:05;;;;;;;15.63;3.25;;;3.10;99.90;;;;;;4999884;28;20052;-91
2022/01/05 06:35:31;;;;;;;13.95;3.58;;;3.00;99.90;;;;;;4999930;28;20242;-91
2022/01/05 06:37:56;;;;;;;15.68;3.55;;;2.30;99.90;;;;;;4999952;28;20120;-91
2022/01/05 06:40:23;;;;;;;15.32;3.38;;;2.50;99.90;;;;;;4993252;28;20034;-90
2022/01/05 06:42:48;;;;;;;17.25;3.50;;;2.10;99.90;;;;;;4997628;28;20041;-90
2022/01/05 06:45:15;;;;;;;10.88;3.00;;;2.20;99.90;;;;;;5011962;28;20044;-91
2022/01/05 06:47:41;;;;;;;16.63;3.65;;;3.10;99.90;;;;;;5017045;28;20111;-91
2022/01/05 06:50:08;;;;;;;18.17;3.58;;;2.20;99.90;;;;;;4997120;28;20506;-90
2022/01/05 06:52:34;;;;;;;21.98;3.65;;;2.30;99.90;;;;;;5000916;28;20119;-91
2022/01/05 06:55:00;;;;;;;10.38;3.33;;;2.90;99.90;;;;;;4999773;28;20039;-90
2022/01/05 06:57:25;;;;;;;15.30;3.15;;;3.10;99.90;;;;;;5016839;28;20048;-91
2022/01/05 06:59:51;;;;;;;13.48;2.95;;;2.50;99.90;;;;;;4992831;28;20033;-91
2022/01/05 07:02:17;;;;;;;15.38;4.40;;;2.60;99.90;;;;;;4983169;28;20125;-90
2022/01/05 07:04:42;;;;;;;13.80;2.83;;;2.60;99.90;;;;;;5017564;28;20060;-90
2022/01/05 07:07:08;;;;;;;15.80;3.22;;;2.70;99.90;;;;;;5001343;28;20099;-91
2022/01/05 07:09:34;;;;;;;13.95;2.85;;;2.60;99.90;;;;;;4998933;28;20048;-90
2022/01/05 07:11:59;;;;;;;12.70;3.28;;;3.80;99.90;;;;;;5015083;28;20041;-91
2022/01/05 07:14:25;;;;;;;21.17;3.00;;;2.70;99.90;;;;;;4986209;28;20079;-91
2022/01/05 07:16:54;;;;;;;13.98;4.18;;;2.60;99.90;;;;;;4996774;28;20108;-90
2022/01/05 07:19:20;;;;;;;17.60;3.05;;;2.70;99.90;;;;;;5018760;28;20505;-91
2022/01/05 07:21:47;;;;;;;16.13;3.85;;;3.40;99.90;;;;;;4998656;28;20049;-90
2022/01/05 07:24:16;;;;;;;8.65;2.90;;;2.80;99.90;;;;;;4989730;28;20398;-90
2022/01/05 07:26:43;;;;;;;17.10;3.17;;;3.80;99.90;;;;;;5002466;28;20041;-90
2022/01/05 07:29:09;;;;;;;14.50;2.90;;;2.80;99.90;;;;;;5017492;28;20108;-88
2022/01/05 07:31:35;;;;;;;10.20;2.40;;;3.80;99.90;;;;;;5000243;28;20485;-90
2022/01/05 07:34:00;;;;;;;13.32;2.72;;;2.80;99.90;;;;;;4984829;28;20032;-91
2022/01/05 07:36:26;;;;;;;11.57;2.55;;;2.80;99.90;;;;;;5017760;28;20505;-90
2022/01/05 07:38:52;;;;;;;7.95;1.77;;;2.80;99.90;;;;;;4985898;28;20123;-91
2022/01/05 07:41:18;;;;;;;7.72;2.42;;;2.80;99.90;;;;;;5009915;28;20043;-89
2022/01/05 07:43:43;;;;;;;10.32;2.10;;;2.80;99.90;;;;;;5005957;28;20041;-89
2022/01/05 07:46:09;;;;;;;5.10;1.75;;;2.70;99.90;;;;;;5002969;28;20036;-89
2022/01/05 07:48:35;;;;;;;4.93;1.50;;;2.70;99.90;;;;;;4985282;28;20446;-90
2022/01/05 07:51:01;;;;;;;9.70;1.92;;;2.80;99.90;;;;;;5017115;28;20417;-89
2022/01/05 07:53:27;;;;;;;4.82;1.50;;;2.50;99.90;;;;;;5018844;28;20217;-92
2022/01/05 07:55:52;;;;;;;2.25;1.30;;;2.50;99.90;;;;;;4983828;28;20038;-91
2022/01/05 07:58:20;;;;;;;8.75;2.95;;;2.40;99.90;;;;;;5000108;28;20119;-92
2022/01/05 08:00:45;;;;;;;7.22;1.58;;;2.20;99.90;;;;;;5010757;28;20056;-91
2022/01/05 08:03:11;;;;;;;5.50;1.65;;;2.10;99.90;;;;;;4970311;28;20041;-91
2022/01/05 08:05:37;;;;;;;7.00;1.60;;;2.70;99.90;;;;;;5002306;28;20048;-89
2022/01/05 08:08:03;;;;;;;6.00;2.08;;;2.00;99.90;;;;;;5006790;28;20036;-91
2022/01/05 08:10:29;;;;;;;5.35;2.05;;;1.90;99.90;;;;;;5004233;28;20025;-91
2022/01/05 08:12:54;;;;;;;8.63;2.05;;;1.80;99.90;;;;;;4999908;28;20056;-87
2022/01/05 08:15:20;;;;;;;4.82;2.08;;;2.70;99.90;;;;;;5008007;28;20529;-90
2022/01/05 08:17:46;;;;;;;7.45;2.72;;;1.60;99.90;;;;;;5001560;28;20025;-90
2022/01/05 08:20:12;;;;;;;12.05;3.25;;;1.50;99.90;;;;;;4962074;28;20053;-91
2022/01/05 08:22:43;;;;;;;12.10;3.35;;;1.50;99.90;;;;;;5003930;28;20124;-91
2022/01/05 08:25:10;;;;;;;10.60;3.63;;;1.50;99.90;;;;;;5019308;28;20515;-92
2022/01/05 08:27:37;;;;;;;11.60;3.20;;;1.50;99.90;;;;;;5004709;28;20049;-91
2022/01/05 08:30:05;;;;;;;13.70;4.32;;;1.60;99.90;;;;;;5017304;28;20045;-89
2022/01/05 08:32:32;;;;;;;17.20;4.40;;;1.60;99.90;;;;;;5022369;28;20037;-88
2022/01/05 08:34:58;;;;;;;15.65;4.10;;;1.70;99.90;;;;;;4999869;28;20049;-87
2022/01/05 08:37:24;;;;;;;13.32;4.22;;;1.70;99.90;;;;;;5020827;28;20053;-88
2022/01/05 08:39:51;;;;;;;15.82;5.28;;;2.60;99.90;;;;;;4997511;28;20434;-89
2022/01/05 08:42:18;;;;;;;12.48;4.28;;;2.80;99.90;;;;;;5004551;28;20132;-91
2022/01/05 08:44:44;;;;;;;17.60;4.43;;;2.00;99.90;;;;;;4975187;28;20052;-90
2022/01/05 08:47:10;;;;;;;13.90;4.07;;;2.30;99.90;;;;;;4999981;28;20037;-90
2022/01/05 08:49:36;;;;;;;13.75;3.58;;;3.60;99.90;;;;;;5001996;28;20033;-89
2022/01/05 08:52:02;;;;;;;20.55;3.72;;;3.30;99.90;;;;;;4998550;28;20037;-90
2022/01/05 08:54:27;;;;;;;14.75;3.33;;;2.70;99.90;;;;;;4997719;28;20041;-90
2022/01/05 08:56:54;;;;;;;12.60;3.05;;;3.60;99.90;;;;;;4986964;28;20034;-91
2022/01/05 08:59:21;;;;;;;11.50;2.80;;;3.00;99.90;;;;;;5000509;28;20048;-89
2022/01/05 09:01:46;;;;;;;8.25;2.72;;;3.20;99.90;;;;;;5016439;28;20094;-90
2022/01/05 09:04:12;;;;;;;11.60;3.20;;;3.30;99.90;;;;;;5000773;28;20045;-89
2022/01/05 09:06:38;;;;;;;12.73;2.33;;;3.40;99.90;;;;;;4998903;28;20375;-90
2022/01/05 09:09:04;;;;;;;12.05;2.92;;;3.50;99.90;;;;;;5012641;28;20038;-89
2022/01/05 09:11:30;;;;;;;6.82;1.88;;;3.50;99.90;;;;;;5001183;28;20517;-89
2022/01/05 09:13:56;;;;;;;8.48;1.73;;;3.60;99.90;;;;;;4979257;28;20034;-90
2022/01/05 09:16:22;;;;;;;12.52;1.80;;;3.60;99.90;;;;;;4986761;28;20072;-88
2022/01/05 09:18:49;;;;;;;11.35;1.65;;;3.60;99.90;;;;;;4995518;28;20120;-90
2022/01/05 09:21:15;;;;;;;9.25;1.70;;;3.60;99.90;;;;;;5010696;28;20066;-90
2022/01/05 09:23:42;;;;;;;8.27;2.63;;;3.60;99.90;;;;;;4982354;28;20125;-93
2022/01/05 09:26:07;;;;;;;12.77;2.35;;;3.60;99.90;;;;;;4982609;28;20045;-91
2022/01/05 09:28:40;;;;;;;7.85;2.15;;;3.80;99.90;;;;;;4984009;28;20046;-88
2022/01/05 09:31:06;;;;;;;14.30;3.38;;;3.90;99.90;;;;;;4993940;28;21196;-91
2022/01/05 09:33:32;;;;;;;11.75;2.05;;;4.30;99.90;;;;;;5001386;28;20117;-91
2022/01/05 09:36:06;;;;;;;10.45;2.20;;;4.70;99.90;;;;;;4968146;28;20030;-89
2022/01/05 09:43:55;;;;;;;12.88;2.72;;;5.80;99.90;;;;;;4987978;28;20104;-91
2022/01/05 09:46:50;;;;;;;9.85;1.98;;;4.50;99.90;;;;;;5009237;28;20108;-90
2022/01/05 09:49:27;;;;;;;17.85;1.98;;;4.40;99.90;;;;;;4987952;28;20241;-91
2022/01/05 09:51:55;;;;;;;17.23;2.42;;;4.40;99.90;;;;;;5030099;28;20391;-93
2022/01/05 09:54:22;;;;;;;11.52;2.35;;;4.40;99.90;;;;;;5010725;28;20029;-87
2022/01/05 09:56:50;;;;;;;16.83;2.20;;;4.50;99.90;;;;;;5042071;28;20056;-90
2022/01/05 09:59:16;;;;;;;10.75;2.00;;;4.50;99.90;;;;;;5026298;28;20042;-88
2022/01/05 10:01:42;;;;;;;17.60;3.22;;;5.10;99.90;;;;;;5038934;28;20141;-92
2022/01/05 10:04:08;;;;;;;15.88;3.13;;;4.50;99.90;;;;;;5015883;28;20066;-90
2022/01/05 10:06:37;;;;;;;14.43;2.70;;;4.70;99.90;;;;;;5033983;28;20022;-91
2022/01/05 10:09:03;;;;;;;11.10;3.22;;;5.10;99.90;;;;;;5016810;28;20048;-90
2022/01/05 10:11:29;;;;;;;14.18;3.00;;;5.30;99.90;;;;;;5026800;28;20038;-92
2022/01/05 10:13:55;;;;;;;13.30;2.60;;;5.60;99.90;;;;;;4989001;28;20046;-88
2022/01/05 10:16:21;;;;;;;9.63;2.72;;;5.60;99.90;;;;;;4985152;28;20048;-89
2022/01/05 10:18:47;;;;;;;11.13;2.72;;;5.40;99.90;;;;;;4986498;28;20049;-89
2022/01/05 10:21:14;;;;;;;17.45;2.78;;;5.30;99.90;;;;;;4992600;28;20046;-88
2022/01/05 10:23:43;;;;;;;21.00;3.55;;;5.20;99.90;;;;;;4986863;28;20853;-95
2022/01/05 10:26:34;;;;;;;15.85;4.32;;;5.10;99.90;;;;;;4970063;28;20049;-91
2022/01/05 10:29:04;;;;;;;17.27;4.97;;;5.00;99.90;;;;;;5012582;28;20037;-91
2022/01/05 10:31:31;;;;;;;11.07;3.42;;;5.10;99.90;;;;;;5010960;28;20046;-92
2022/01/05 10:33:59;;;;;;;11.30;3.35;;;5.60;99.90;;;;;;5009413;28;20042;-90
2022/01/05 10:36:41;;;;;;;17.05;4.05;;;5.20;99.90;;;;;;4983122;28;20030;-91
2022/01/05 10:39:07;;;;;;;18.85;4.47;;;5.20;99.90;;;;;;4986018;28;20049;-89
2022/01/05 10:41:37;;;;;;;20.38;3.58;;;5.30;99.90;;;;;;4991688;28;20046;-88
2022/01/05 10:44:18;;;;;;;12.93;3.40;;;5.30;99.90;;;;;;4998432;28;20049;-90
2022/01/05 10:46:47;;;;;;;16.52;3.35;;;5.30;99.90;;;;;;4997060;28;20045;-89
2022/01/05 10:49:34;;;;;;;15.90;3.00;;;5.40;99.90;;;;;;4968465;28;20581;-91
2022/01/05 10:52:20;;;;;;;18.02;5.25;;;5.80;99.90;;;;;;4978008;28;20132;-90
2022/01/05 10:54:47;;;;;;;13.10;3.70;;;5.60;99.90;;;;;;4994458;28;20045;-90
2022/01/05 10:57:13;;;;;;;18.27;3.95;;;5.50;99.90;;;;;;4992037;28;20064;-87
2022/01/05 10:59:44;;;;;;;21.65;3.22;;;5.60;99.90;;;;;;4976034;28;20406;-87
2022/01/05 11:02:30;;;;;;;17.15;3.72;;;6.30;99.90;;;;;;4995239;28;20045;-90
2022/01/05 11:05:08;;;;;;;15.10;2.97;;;5.50;99.90;;;;;;4963070;28;20045;-90
2022/01/05 11:07:39;;;;;;;23.83;3.67;;;5.80;99.90;;;;;;4999228;28;20726;-90
2022/01/05 11:10:09;;;;;;;27.67;4.70;;;5.70;99.90;;;;;;4997450;28;20034;-87
2022/01/05 11:12:53;;;;;;;14.93;3.17;;;5.60;99.90;;;;;;4963989;28;20044;-86
2022/01/05 11:15:19;;;;;;;20.90;3.92;;;5.80;99.90;;;;;;4997465;28;20046;-86
2022/01/05 11:18:04;;;;;;;17.75;3.38;;;5.90;99.90;;;;;;4977247;28;20077;-86
2022/01/05 11:20:30;;;;;;;16.05;3.20;;;5.90;99.90;;;;;;5016129;28;20344;-86
2022/01/05 11:22:55;;;;;;;18.23;3.35;;;7.00;99.90;;;;;;4990318;28;20107;-86
2022/01/05 11:25:21;;;;;;;19.75;3.28;;;6.00;99.90;;;;;;5016337;28;20498;-86
2022/01/05 11:27:48;;;;;;;13.45;3.38;;;6.00;99.90;;;;;;5001324;28;20425;-86
2022/01/05 11:30:13;;;;;;;17.60;2.97;;;6.20;99.90;;;;;;4965274;28;20502;-87
2022/01/05 11:32:39;;;;;;;19.60;3.55;;;5.90;99.90;;;;;;4998954;28;20054;-86
2022/01/05 11:35:07;;;;;;;18.77;3.40;;;6.00;99.90;;;;;;4985049;28;20052;-87
2022/01/05 11:37:34;;;;;;;17.75;3.35;;;5.80;99.90;;;;;;5017601;28;20155;-86
2022/01/05 11:40:05;;;;;;;17.38;3.35;;;6.50;99.90;;;;;;4981859;28;20038;-87
2022/01/05 11:42:39;;;;;;;14.50;3.58;;;5.80;99.90;;;;;;4987029;28;20049;-87
2022/01/05 11:45:07;;;;;;;20.88;4.30;;;6.00;99.90;;;;;;4998841;28;20049;-86
2022/01/05 11:47:36;;;;;;;14.27;3.60;;;6.00;99.90;;;;;;5000780;28;20045;-86
2022/01/05 11:50:14;;;;;;;22.80;3.83;;;6.80;99.90;;;;;;5015404;28;20041;-86
2022/01/05 11:52:54;;;;;;;12.40;3.28;;;6.10;99.90;;;;;;5013181;28;20399;-88
2022/01/05 11:55:19;;;;;;;17.00;3.88;;;6.10;99.90;;;;;;5013092;28;20094;-88
2022/01/05 11:58:14;;;;;;;19.70;3.17;;;6.20;99.90;;;;;;4976748;28;20049;-88
2022/01/05 12:00:41;;;;;;;16.05;3.90;;;6.20;99.90;;;;;;4967555;28;20054;-84
2022/01/05 12:03:07;;;;;;;14.63;3.13;;;6.30;99.90;;;;;;5001198;28;20784;-87
2022/01/05 12:06:05;;;;;;;19.60;3.65;;;6.30;99.90;;;;;;4995366;28;20041;-90
2022/01/05 12:08:41;;;;;;;22.00;5.18;;;6.30;99.90;;;;;;4987047;28;20042;-92
2022/01/05 12:11:35;;;;;;;17.95;5.07;;;6.30;99.90;;;;;;4998540;28;20117;-87
2022/01/05 12:14:21;;;;;;;11.13;3.50;;;6.30;99.90;;;;;;5010200;28;20037;-88
2022/01/05 12:16:58;;;;;;;14.93;2.97;;;6.30;99.90;;;;;;5009383;28;20041;-88
2022/01/05 12:19:30;;;;;;;8.90;3.08;;;6.30;99.90;;;;;;5021159;28;20128;-88
2022/01/05 12:21:58;;;;;;;13.57;3.20;;;6.40;99.90;;;;;;5005354;28;20132;-87
2022/01/05 12:24:52;;;;;;;11.70;3.15;;;6.50;99.90;;;;;;5002119;28;20053;-88
2022/01/05 12:27:32;;;;;;;13.07;2.65;;;6.50;99.90;;;;;;5005977;28;20045;-88
2022/01/05 12:30:23;;;;;;;9.00;2.25;;;6.60;99.90;;;;;;4999946;28;20044;-88
2022/01/05 12:33:04;;;;;;;8.07;2.10;;;6.60;99.90;;;;;;4995092;28;20049;-87
2022/01/05 12:35:44;;;;;;;10.90;2.75;;;6.50;99.90;;;;;;4993430;28;20128;-87
2022/01/05 12:38:11;;;;;;;10.18;2.10;;;6.50;99.90;;;;;;5006856;28;20042;-87
2022/01/05 12:40:46;;;;;;;13.90;2.60;;;6.50;99.90;;;;;;4990407;28;20104;-88
2022/01/05 12:43:14;;;;;;;7.50;2.03;;;6.50;99.90;;;;;;4980520;28;20046;-87
2022/01/05 12:46:06;;;;;;;10.15;2.17;;;6.70;99.90;;;;;;4990018;28;20049;-87
2022/01/05 12:48:32;;;;;;;17.20;2.85;;;6.60;99.90;;;;;;5001367;28;20049;-87
2022/01/05 12:51:20;;;;;;;8.05;2.20;;;6.50;99.90;;;;;;5004045;28;20038;-88
2022/01/05 12:54:18;;;;;;;10.65;2.85;;;6.40;99.90;;;;;;4981409;28;20577;-87
2022/01/05 12:56:44;;;;;;;7.90;2.08;;;6.40;99.90;;;;;;4992790;28;20117;-87
2022/01/05 12:59:29;;;;;;;10.98;2.58;;;6.40;99.90;;;;;;4999185;28;20128;-88
2022/01/05 13:01:57;;;;;;;9.02;2.17;;;6.50;99.90;;;;;;4988629;28;20030;-87